createdAt,value
2023-05-02T00:02:05.649Z,2.50
2023-05-02T00:04:37.118Z,2.50
2023-05-02T00:07:08.077Z,2.90
2023-05-02T00:09:38.946Z,2.80
2023-05-02T00:12:09.812Z,2.50
2023-05-02T00:14:40.853Z,2.20
2023-05-02T00:17:18.549Z,2.40
2023-05-02T00:22:18.920Z,1.80
2023-05-02T00:24:49.570Z,2.30
2023-05-02T00:27:20.485Z,2.20
2023-05-02T00:29:52.335Z,2.60
2023-05-02T00:32:23.476Z,2.20
2023-05-02T00:34:54.612Z,2.30
2023-05-02T00:37:29.530Z,2.20
2023-05-02T00:40:01.494Z,2.20
2023-05-02T00:42:36.150Z,2.30
2023-05-02T00:45:08.541Z,2.30
2023-05-02T00:47:39.200Z,2.30
2023-05-02T00:50:11.590Z,2.60
2023-05-02T00:52:42.265Z,2.60
2023-05-02T00:55:13.192Z,2.50
2023-05-02T00:57:44.150Z,2.60
2023-05-02T01:00:16.367Z,2.40
2023-05-02T01:02:54.538Z,2.20
2023-05-02T01:05:34.315Z,2.30
2023-05-02T01:08:15.172Z,2.60
2023-05-02T01:10:53.798Z,2.40
2023-05-02T01:13:29.400Z,2.30
2023-05-02T01:16:03.692Z,2.10
2023-05-02T01:18:37.738Z,2.30
2023-05-02T01:21:10.859Z,2.40
2023-05-02T01:23:47.712Z,2.00
2023-05-02T01:26:25.246Z,2.30
2023-05-02T01:29:01.608Z,2.30
2023-05-02T01:31:36.639Z,2.20
2023-05-02T01:34:10.890Z,2.20
2023-05-02T01:36:46.674Z,2.10
2023-05-02T01:39:22.254Z,2.20
2023-05-02T01:41:55.739Z,2.00
2023-05-02T01:44:28.255Z,2.10
2023-05-02T01:47:01.683Z,2.10
2023-05-02T01:49:34.870Z,1.70
2023-05-02T01:52:10.819Z,2.10
2023-05-02T01:54:43.941Z,1.90
2023-05-02T01:57:16.681Z,1.80
2023-05-02T01:59:48.748Z,1.90
2023-05-02T02:02:20.839Z,2.10
2023-05-02T02:04:53.602Z,1.90
2023-05-02T02:07:24.858Z,1.90
2023-05-02T02:09:55.559Z,2.10
2023-05-02T02:12:29.924Z,1.80
2023-05-02T02:15:04.922Z,2.10
2023-05-02T02:17:41.603Z,2.40
2023-05-02T02:20:16.463Z,2.20
2023-05-02T02:22:48.823Z,2.20
2023-05-02T02:25:21.029Z,2.20
2023-05-02T02:27:52.768Z,2.30
2023-05-02T02:30:23.753Z,2.10
2023-05-02T02:32:54.700Z,2.30
2023-05-02T02:35:27.380Z,2.30
2023-05-02T02:38:04.378Z,2.60
2023-05-02T02:40:48.748Z,2.50
2023-05-02T02:43:25.222Z,2.80
2023-05-02T02:46:09.489Z,2.80
2023-05-02T02:48:46.258Z,3.20
2023-05-02T02:51:26.990Z,2.80
2023-05-02T02:54:05.920Z,3.40
2023-05-02T02:56:43.353Z,3.80
2023-05-02T02:59:20.634Z,3.60
2023-05-02T03:02:02.651Z,3.70
2023-05-02T03:04:35.296Z,4.00
2023-05-02T03:07:06.419Z,4.50
2023-05-02T03:09:48.523Z,4.10
2023-05-02T03:12:19.733Z,4.30
2023-05-02T03:14:51.724Z,3.90
2023-05-02T03:17:24.951Z,4.20
2023-05-02T03:19:57.598Z,4.60
2023-05-02T03:22:28.392Z,3.80
2023-05-02T03:24:59.039Z,5.10
2023-05-02T03:27:29.911Z,3.70
2023-05-02T03:30:01.047Z,5.20
2023-05-02T03:32:31.950Z,5.30
2023-05-02T03:35:02.686Z,4.50
2023-05-02T03:37:34.862Z,5.20
2023-05-02T03:40:07.502Z,6.80
2023-05-02T03:42:41.353Z,7.30
2023-05-02T03:45:13.398Z,6.70
2023-05-02T03:47:44.524Z,6.40
2023-05-02T03:50:15.301Z,7.20
2023-05-02T03:52:46.463Z,5.40
2023-05-02T03:55:17.121Z,7.60
2023-05-02T03:57:48.022Z,7.40
2023-05-02T04:00:19.506Z,7.30
2023-05-02T04:02:50.462Z,7.00
2023-05-02T04:05:22.186Z,7.60
2023-05-02T04:07:53.171Z,6.20
2023-05-02T04:10:24.834Z,6.90
2023-05-02T04:12:55.919Z,6.80
2023-05-02T04:15:26.585Z,7.20
2023-05-02T04:17:58.785Z,7.40
2023-05-02T04:20:29.938Z,7.70
2023-05-02T04:23:01.018Z,8.60
2023-05-02T04:25:32.434Z,8.40
2023-05-02T04:28:03.358Z,8.00
2023-05-02T04:30:34.160Z,7.60
2023-05-02T04:33:04.963Z,8.40
2023-05-02T04:35:35.732Z,7.20
2023-05-02T04:38:06.633Z,8.40
2023-05-02T04:40:37.437Z,7.70
2023-05-02T04:43:08.552Z,8.70
2023-05-02T04:45:39.758Z,6.30
2023-05-02T04:48:11.036Z,7.80
2023-05-02T04:50:41.798Z,7.60
2023-05-02T04:53:12.688Z,8.30
2023-05-02T04:55:44.082Z,8.30
2023-05-02T04:58:15.859Z,8.30
2023-05-02T05:00:46.587Z,8.40
2023-05-02T05:03:17.648Z,8.20
2023-05-02T05:05:48.415Z,8.00
2023-05-02T05:08:19.010Z,8.50
2023-05-02T05:10:49.676Z,8.60
2023-05-02T05:13:20.420Z,8.10
2023-05-02T05:15:51.782Z,7.90
2023-05-02T05:18:22.536Z,8.50
2023-05-02T05:20:54.058Z,8.30
2023-05-02T05:23:25.060Z,7.70
2023-05-02T05:25:56.572Z,8.80
2023-05-02T05:28:27.438Z,7.70
2023-05-02T05:30:58.130Z,7.60
2023-05-02T05:33:29.355Z,7.70
2023-05-02T05:36:06.937Z,7.20
2023-05-02T05:38:38.503Z,6.00
2023-05-02T05:41:09.577Z,6.10
2023-05-02T05:43:40.338Z,5.90
2023-05-02T05:46:11.048Z,5.40
2023-05-02T05:48:41.873Z,5.10
2023-05-02T05:51:12.569Z,5.70
2023-05-02T05:53:43.226Z,4.90
2023-05-02T05:56:15.335Z,4.60
2023-05-02T05:58:46.497Z,5.00
2023-05-02T06:01:17.752Z,4.70
2023-05-02T06:03:49.710Z,5.40
2023-05-02T06:06:20.633Z,5.00
2023-05-02T06:08:51.583Z,4.50
2023-05-02T06:11:22.554Z,3.00
2023-05-02T06:13:54.084Z,2.50
2023-05-02T06:16:24.814Z,2.50
2023-05-02T06:18:55.695Z,1.90
2023-05-02T06:21:26.276Z,1.90
2023-05-02T06:23:56.976Z,1.80
2023-05-02T06:26:27.978Z,1.70
2023-05-02T06:28:59.332Z,2.00
2023-05-02T06:31:30.116Z,2.00
2023-05-02T06:34:01.181Z,1.50
2023-05-02T06:36:31.890Z,1.80
2023-05-02T06:39:02.650Z,1.70
2023-05-02T06:41:33.628Z,1.70
2023-05-02T06:44:05.698Z,1.70
2023-05-02T06:46:36.773Z,1.60
2023-05-02T06:49:13.299Z,2.00
2023-05-02T06:51:44.751Z,1.70
2023-05-02T06:54:15.871Z,2.00
2023-05-02T06:56:46.565Z,1.80
2023-05-02T06:59:17.744Z,1.80
2023-05-02T07:01:48.402Z,1.50
2023-05-02T07:04:20.049Z,1.90
2023-05-02T07:06:51.764Z,2.20
2023-05-02T07:09:22.380Z,1.90
2023-05-02T07:11:53.497Z,2.00
2023-05-02T07:14:24.487Z,2.20
2023-05-02T07:16:56.163Z,2.40
2023-05-02T07:19:26.851Z,2.40
2023-05-02T07:21:57.402Z,2.80
2023-05-02T07:24:28.412Z,2.40
2023-05-02T07:26:59.068Z,2.60
2023-05-02T07:29:30.148Z,2.50
2023-05-02T07:32:01.455Z,2.60
2023-05-02T07:34:32.650Z,2.50
2023-05-02T07:37:03.230Z,2.20
2023-05-02T07:39:35.859Z,3.20
2023-05-02T07:42:07.095Z,2.60
2023-05-02T07:44:37.590Z,2.70
2023-05-02T07:47:09.071Z,3.00
2023-05-02T07:49:39.635Z,2.00
2023-05-02T07:52:10.319Z,2.70
2023-05-02T07:54:41.249Z,2.50
2023-05-02T07:57:13.204Z,2.50
2023-05-02T07:59:44.007Z,2.60
2023-05-02T08:02:14.795Z,2.70
2023-05-02T08:04:45.421Z,2.60
2023-05-02T08:07:16.836Z,2.70
2023-05-02T08:09:47.361Z,2.60
2023-05-02T08:12:18.283Z,2.60
2023-05-02T08:14:49.783Z,2.70
2023-05-02T08:17:21.369Z,2.70
2023-05-02T08:19:52.065Z,2.30
2023-05-02T08:22:22.703Z,2.70
2023-05-02T08:24:53.268Z,2.90
2023-05-02T08:27:23.917Z,3.00
2023-05-02T08:29:54.875Z,2.30
2023-05-02T08:32:25.642Z,2.50
2023-05-02T08:34:58.931Z,2.80
2023-05-02T08:37:29.636Z,2.70
2023-05-02T08:40:01.304Z,2.90
2023-05-02T08:42:36.331Z,2.70
2023-05-02T08:45:09.542Z,3.00
2023-05-02T08:47:41.883Z,3.40
2023-05-02T08:50:13.451Z,2.70
2023-05-02T08:52:45.347Z,3.30
2023-05-02T08:55:17.045Z,3.10
2023-05-02T08:57:47.640Z,2.20
2023-05-02T09:00:20.345Z,2.90
2023-05-02T09:03:06.606Z,3.20
2023-05-02T09:05:43.143Z,2.60
2023-05-02T09:08:13.769Z,2.80
2023-05-02T09:10:45.130Z,2.10
2023-05-02T09:13:36.701Z,2.50
2023-05-02T09:16:09.546Z,2.10
2023-05-02T09:18:42.104Z,1.90
2023-05-02T09:21:15.312Z,2.20
2023-05-02T09:23:49.575Z,1.80
2023-05-02T09:26:22.296Z,2.20
2023-05-02T09:28:54.214Z,1.60
2023-05-02T09:31:49.481Z,1.80
2023-05-02T09:34:18.502Z,1.60
2023-05-02T09:36:51.980Z,1.80
2023-05-02T09:39:25.786Z,2.00
2023-05-02T09:41:57.488Z,1.80
2023-05-02T09:44:37.147Z,1.90
2023-05-02T09:47:09.274Z,1.80
2023-05-02T09:49:45.715Z,2.00
2023-05-02T09:52:18.317Z,1.90
2023-05-02T09:54:50.669Z,1.80
2023-05-02T09:57:21.917Z,1.70
2023-05-02T09:59:59.775Z,1.50
2023-05-02T10:05:04.717Z,1.70
2023-05-02T10:07:36.775Z,1.80
2023-05-02T10:10:13.544Z,2.50
2023-05-02T10:12:44.964Z,2.10
2023-05-02T10:15:18.376Z,2.00
2023-05-02T10:17:52.983Z,1.70
2023-05-02T10:20:28.696Z,1.80
2023-05-02T10:23:02.472Z,1.90
2023-05-02T10:25:34.938Z,1.90
2023-05-02T10:28:06.609Z,2.20
2023-05-02T10:30:38.851Z,1.90
2023-05-02T10:33:09.661Z,2.00
2023-05-02T10:35:44.867Z,1.80
2023-05-02T10:38:19.165Z,1.70
2023-05-02T10:41:00.064Z,1.70
2023-05-02T10:43:36.347Z,2.00
2023-05-02T10:46:33.906Z,1.70
2023-05-02T10:49:06.508Z,1.90
2023-05-02T10:51:38.616Z,1.80
2023-05-02T10:54:29.223Z,1.70
2023-05-02T10:57:08.398Z,1.70
2023-05-02T10:59:40.997Z,2.00
2023-05-02T11:02:51.668Z,1.80
2023-05-02T11:05:22.863Z,1.50
2023-05-02T11:08:32.865Z,2.00
2023-05-02T11:11:42.589Z,1.80
2023-05-02T11:14:33.798Z,2.20
2023-05-02T11:17:11.621Z,2.50
2023-05-02T11:20:30.236Z,2.00
2023-05-02T11:23:25.833Z,2.10
2023-05-02T11:26:00.449Z,2.20
2023-05-02T11:28:47.778Z,2.20
2023-05-02T11:32:05.844Z,2.80
2023-05-02T11:34:50.797Z,2.40
2023-05-02T11:37:22.301Z,2.70
2023-05-02T11:39:53.745Z,2.00
2023-05-02T11:42:34.978Z,2.50
2023-05-02T11:45:06.572Z,2.30
2023-05-02T11:47:37.312Z,3.00
2023-05-02T11:50:10.155Z,2.30
2023-05-02T11:52:42.257Z,2.40
2023-05-02T11:55:15.031Z,2.60
2023-05-02T11:57:45.949Z,2.10
2023-05-02T12:00:18.409Z,2.40
2023-05-02T12:02:49.440Z,2.50
2023-05-02T12:05:30.676Z,2.60
2023-05-02T12:08:02.567Z,2.20
2023-05-02T12:10:40.232Z,2.30
2023-05-02T12:13:12.273Z,2.40
2023-05-02T12:15:43.285Z,2.50
2023-05-02T12:18:15.344Z,2.60
2023-05-02T12:20:46.943Z,2.90
2023-05-02T12:23:18.170Z,2.70
2023-05-02T12:25:49.170Z,2.70
2023-05-02T12:28:20.982Z,2.60
2023-05-02T12:30:53.011Z,2.70
2023-05-02T12:33:23.803Z,2.20
2023-05-02T12:35:54.483Z,2.40
2023-05-02T12:38:25.952Z,2.50
2023-05-02T12:40:57.705Z,2.50
2023-05-02T12:43:28.759Z,2.80
2023-05-02T12:46:13.183Z,3.00
2023-05-02T12:48:46.177Z,2.60
2023-05-02T12:51:28.648Z,2.50
2023-05-02T12:53:59.476Z,3.10
2023-05-02T12:56:32.517Z,2.40
2023-05-02T12:59:05.322Z,3.10
2023-05-02T13:01:36.966Z,2.90
2023-05-02T13:04:07.670Z,2.40
2023-05-02T13:06:38.544Z,2.70
2023-05-02T13:09:09.103Z,2.60
2023-05-02T13:11:40.369Z,2.80
2023-05-02T13:14:11.567Z,2.40
2023-05-02T13:16:42.383Z,2.50
2023-05-02T13:19:13.320Z,2.40
2023-05-02T13:21:43.937Z,2.20
2023-05-02T13:24:18.725Z,2.40
2023-05-02T13:26:49.518Z,2.40
2023-05-02T13:29:20.021Z,2.40
2023-05-02T13:31:50.840Z,2.50
2023-05-02T13:34:21.461Z,2.10
2023-05-02T13:36:52.486Z,2.40
2023-05-02T13:39:23.374Z,2.90
2023-05-02T13:41:53.871Z,2.20
2023-05-02T13:44:24.878Z,2.40
2023-05-02T13:46:55.533Z,2.70
2023-05-02T13:49:26.947Z,2.70
2023-05-02T13:51:58.196Z,2.70
2023-05-02T13:54:29.081Z,2.40
2023-05-02T13:56:59.919Z,2.50
2023-05-02T13:59:30.536Z,2.30
2023-05-02T14:02:01.431Z,2.00
2023-05-02T14:04:32.227Z,2.30
2023-05-02T14:07:02.861Z,2.20
2023-05-02T14:09:33.475Z,2.60
2023-05-02T14:12:04.395Z,2.10
2023-05-02T14:14:36.095Z,2.50
2023-05-02T14:17:07.112Z,2.30
2023-05-02T14:19:38.278Z,2.10
2023-05-02T14:22:09.337Z,2.40
2023-05-02T14:24:41.079Z,2.20
2023-05-02T14:27:13.058Z,2.30
2023-05-02T14:29:44.078Z,2.30
2023-05-02T14:32:15.393Z,2.00
2023-05-02T14:34:46.169Z,2.30
2023-05-02T14:37:16.903Z,2.00
2023-05-02T14:39:51.582Z,1.80
2023-05-02T14:42:23.730Z,1.70
2023-05-02T14:44:54.712Z,1.60
2023-05-02T14:47:27.396Z,1.90
2023-05-02T14:49:58.008Z,1.70
2023-05-02T14:52:28.859Z,1.60
2023-05-02T14:55:02.151Z,1.80
2023-05-02T14:57:32.790Z,1.90
2023-05-02T15:00:05.727Z,1.70
2023-05-02T15:02:37.091Z,2.00
2023-05-02T15:05:12.325Z,1.50
2023-05-02T15:07:43.171Z,1.70
2023-05-02T15:10:14.078Z,2.00
2023-05-02T15:12:46.812Z,1.50
2023-05-02T15:15:17.924Z,1.70
2023-05-02T15:17:48.977Z,1.40
2023-05-02T15:20:19.931Z,1.50
2023-05-02T15:22:50.589Z,1.50
2023-05-02T15:25:21.400Z,1.70
2023-05-02T15:27:52.743Z,1.50
2023-05-02T15:30:23.625Z,1.40
2023-05-02T15:32:54.606Z,1.20
2023-05-02T15:35:26.166Z,1.20
2023-05-02T15:37:56.983Z,1.40
2023-05-02T15:40:28.534Z,1.40
2023-05-02T15:42:59.535Z,1.40
2023-05-02T15:45:30.486Z,1.70
2023-05-02T15:48:01.119Z,1.70
2023-05-02T15:50:32.030Z,1.10
2023-05-02T15:53:03.349Z,1.30
2023-05-02T15:55:35.244Z,1.40
2023-05-02T15:58:06.235Z,1.30
2023-05-02T16:00:36.850Z,1.30
2023-05-02T16:03:07.461Z,1.30
2023-05-02T16:05:38.380Z,1.50
2023-05-02T16:08:09.013Z,1.20
2023-05-02T16:10:40.446Z,1.30
2023-05-02T16:13:11.398Z,1.20
2023-05-02T16:15:42.249Z,1.30
2023-05-02T16:18:13.031Z,1.20
2023-05-02T16:20:43.949Z,1.50
2023-05-02T16:23:14.863Z,1.40
2023-05-02T16:25:45.370Z,1.40
2023-05-02T16:28:16.090Z,1.40
2023-05-02T16:30:46.921Z,1.70
2023-05-02T16:33:17.607Z,1.50
2023-05-02T16:35:48.886Z,1.60
2023-05-02T16:38:19.397Z,1.30
2023-05-02T16:40:50.298Z,1.10
2023-05-02T16:43:21.046Z,1.40
2023-05-02T16:45:59.668Z,1.30
2023-05-02T16:48:30.711Z,1.10
2023-05-02T16:51:04.093Z,1.30
2023-05-02T16:53:35.857Z,1.40
2023-05-02T16:56:07.473Z,1.30
2023-05-02T16:58:38.419Z,1.40
2023-05-02T17:01:09.407Z,1.40
2023-05-02T17:03:40.602Z,1.50
2023-05-02T17:06:11.425Z,1.30
2023-05-02T17:08:42.751Z,1.20
2023-05-02T17:11:13.416Z,1.50
2023-05-02T17:13:44.722Z,1.00
2023-05-02T17:16:15.857Z,1.40
2023-05-02T17:18:46.739Z,1.80
2023-05-02T17:21:17.647Z,1.60
2023-05-02T17:23:48.157Z,1.60
2023-05-02T17:26:18.686Z,1.60
2023-05-02T17:28:50.382Z,1.30
2023-05-02T17:31:21.002Z,1.80
2023-05-02T17:33:52.348Z,1.50
2023-05-02T17:36:22.906Z,1.60
2023-05-02T17:38:53.503Z,1.40
2023-05-02T17:41:24.090Z,1.30
2023-05-02T17:43:54.998Z,1.60
2023-05-02T17:46:25.860Z,1.40
2023-05-02T17:48:56.502Z,1.20
2023-05-02T17:51:27.212Z,1.30
2023-05-02T17:53:57.720Z,1.20
2023-05-02T17:56:28.452Z,1.50
2023-05-02T17:59:00.498Z,1.40
2023-05-02T18:01:31.669Z,1.50
2023-05-02T18:04:04.095Z,1.10
2023-05-02T18:06:35.062Z,1.40
2023-05-02T18:09:05.894Z,1.20
2023-05-02T18:11:37.549Z,1.20
2023-05-02T18:14:08.314Z,1.20
2023-05-02T18:16:39.086Z,1.20
2023-05-02T18:19:10.058Z,1.10
2023-05-02T18:21:41.224Z,1.20
2023-05-02T18:24:12.028Z,1.20
2023-05-02T18:26:43.074Z,1.30
2023-05-02T18:29:13.956Z,1.30
2023-05-02T18:31:46.571Z,1.40
2023-05-02T18:34:17.143Z,1.00
2023-05-02T18:36:47.749Z,1.40
2023-05-02T18:39:21.434Z,1.40
2023-05-02T18:41:52.263Z,1.40
2023-05-02T18:44:22.722Z,1.10
2023-05-02T18:46:53.317Z,1.30
2023-05-02T18:49:24.136Z,1.80
2023-05-02T18:51:55.567Z,1.20
2023-05-02T18:54:27.820Z,1.40
2023-05-02T18:56:58.671Z,1.40
2023-05-02T18:59:29.163Z,1.10
2023-05-02T19:02:00.921Z,1.20
2023-05-02T19:04:34.400Z,1.30
2023-05-02T19:07:04.958Z,1.10
2023-05-02T19:09:36.241Z,1.40
2023-05-02T19:12:07.857Z,1.30
2023-05-02T19:14:39.620Z,1.20
2023-05-02T19:17:10.222Z,1.20
2023-05-02T19:19:41.730Z,1.40
2023-05-02T19:22:13.863Z,1.40
2023-05-02T19:24:44.590Z,1.40
2023-05-02T19:27:15.721Z,1.50
2023-05-02T19:29:46.214Z,1.10
2023-05-02T19:32:16.826Z,1.40
2023-05-02T19:34:50.884Z,1.50
2023-05-02T19:37:22.988Z,1.30
2023-05-02T19:39:55.143Z,1.10
2023-05-02T19:42:27.399Z,1.60
2023-05-02T19:45:00.204Z,1.20
2023-05-02T19:47:33.974Z,1.20
2023-05-02T19:50:08.462Z,1.30
2023-05-02T19:52:41.936Z,1.30
2023-05-02T19:55:16.712Z,1.20
2023-05-02T19:57:49.388Z,1.30
2023-05-02T20:00:22.310Z,1.20
2023-05-02T20:02:53.263Z,1.20
2023-05-02T20:05:24.069Z,1.30
2023-05-02T20:07:54.614Z,1.70
2023-05-02T20:10:26.294Z,0.90
2023-05-02T20:12:56.751Z,1.20
2023-05-02T20:15:27.987Z,1.20
2023-05-02T20:17:58.808Z,1.20
2023-05-02T20:20:29.762Z,1.40
2023-05-02T20:23:00.438Z,1.40
2023-05-02T20:25:31.130Z,1.60
2023-05-02T20:28:01.981Z,1.40
2023-05-02T20:30:33.577Z,1.00
2023-05-02T20:33:14.964Z,1.20
2023-05-02T20:35:54.034Z,1.20
2023-05-02T20:38:24.868Z,1.30
2023-05-02T20:40:55.630Z,1.30
2023-05-02T20:43:32.175Z,1.20
2023-05-02T20:46:11.953Z,1.60
2023-05-02T20:48:42.859Z,1.10
2023-05-02T20:51:13.551Z,1.20
2023-05-02T20:53:44.816Z,1.20
2023-05-02T20:56:15.840Z,1.60
2023-05-02T20:58:46.473Z,1.20
2023-05-02T21:01:17.673Z,1.00
2023-05-02T21:03:48.152Z,1.50
2023-05-02T21:06:19.718Z,1.40
2023-05-02T21:08:50.991Z,1.50
2023-05-02T21:11:21.964Z,1.60
2023-05-02T21:13:52.890Z,1.30
2023-05-02T21:16:23.634Z,0.90
2023-05-02T21:18:55.065Z,1.50
2023-05-02T21:21:26.478Z,1.40
2023-05-02T21:23:58.515Z,1.40
2023-05-02T21:26:29.079Z,1.70
2023-05-02T21:29:00.211Z,1.40
2023-05-02T21:31:32.731Z,1.30
2023-05-02T21:34:03.611Z,1.00
2023-05-02T21:36:35.224Z,1.40
2023-05-02T21:39:06.474Z,1.40
2023-05-02T21:41:37.635Z,1.10
2023-05-02T21:44:11.350Z,1.20
2023-05-02T21:46:42.030Z,1.20
2023-05-02T21:49:13.259Z,1.50
2023-05-02T21:51:44.368Z,1.30
2023-05-02T21:54:14.941Z,1.60
2023-05-02T21:56:45.989Z,1.20
2023-05-02T21:59:16.727Z,1.30
2023-05-02T22:01:47.357Z,1.10
2023-05-02T22:04:18.284Z,1.50
2023-05-02T22:06:53.202Z,1.40
2023-05-02T22:09:23.916Z,1.40
2023-05-02T22:11:54.936Z,1.50
2023-05-02T22:14:33.667Z,1.50
2023-05-02T22:17:12.667Z,1.50
2023-05-02T22:19:43.403Z,1.30
2023-05-02T22:22:14.362Z,1.40
2023-05-02T22:24:45.376Z,1.50
2023-05-02T22:27:16.210Z,1.80
2023-05-02T22:29:46.765Z,1.60
2023-05-02T22:32:17.394Z,1.30
2023-05-02T22:34:48.463Z,1.40
2023-05-02T22:37:19.066Z,1.70
2023-05-02T22:39:49.931Z,1.40
2023-05-02T22:42:21.426Z,1.60
2023-05-02T22:44:54.676Z,1.40
2023-05-02T22:47:26.810Z,1.50
2023-05-02T22:49:59.584Z,1.30
2023-05-02T22:52:30.658Z,1.40
2023-05-02T22:55:01.256Z,1.60
2023-05-02T22:57:31.947Z,1.50
2023-05-02T23:00:02.896Z,1.40
2023-05-02T23:02:35.526Z,1.30
2023-05-02T23:05:07.546Z,1.30
2023-05-02T23:07:38.229Z,1.40
2023-05-02T23:10:10.965Z,1.40
2023-05-02T23:12:42.000Z,1.70
2023-05-02T23:15:13.268Z,1.50
2023-05-02T23:17:44.212Z,1.50
2023-05-02T23:20:19.616Z,1.60
2023-05-02T23:22:51.360Z,1.40
2023-05-02T23:25:24.362Z,1.30
2023-05-02T23:27:55.392Z,1.60
2023-05-02T23:30:25.988Z,1.40
2023-05-02T23:32:57.625Z,1.30
2023-05-02T23:35:28.880Z,1.50
2023-05-02T23:38:01.889Z,1.30
2023-05-02T23:40:32.902Z,1.40
2023-05-02T23:43:03.638Z,1.60
2023-05-02T23:45:34.434Z,1.20
2023-05-02T23:48:05.939Z,1.50
2023-05-02T23:50:36.923Z,1.40
2023-05-02T23:53:08.409Z,1.50
2023-05-02T23:55:39.222Z,1.50
2023-05-02T23:58:10.192Z,1.50
